sensor_id;sensor_type;location;lat;lon;timestamp;P1;durP1;ratioP1;P2;durP2;ratioP2
34405;SDS011;20658;45.630;8.886;2024-03-02T00:00:55;6.65;;;1.77;;
34405;SDS011;20658;45.630;8.886;2024-03-02T00:03:28;4.47;;;1.48;;
34405;SDS011;20658;45.630;8.886;2024-03-02T00:06:02;6.80;;;1.90;;
34405;SDS011;20658;45.630;8.886;2024-03-02T00:08:36;3.83;;;1.55;;
34405;SDS011;20658;45.630;8.886;2024-03-02T00:11:09;4.03;;;2.00;;
34405;SDS011;20658;45.630;8.886;2024-03-02T00:13:45;3.90;;;1.42;;
34405;SDS011;20658;45.630;8.886;2024-03-02T00:16:20;2.95;;;1.45;;
34405;SDS011;20658;45.630;8.886;2024-03-02T00:18:55;4.35;;;1.65;;
34405;SDS011;20658;45.630;8.886;2024-03-02T00:21:29;4.47;;;1.80;;
34405;SDS011;20658;45.630;8.886;2024-03-02T00:23:59;4.05;;;2.22;;
34405;SDS011;20658;45.630;8.886;2024-03-02T00:26:34;4.68;;;1.95;;
34405;SDS011;20658;45.630;8.886;2024-03-02T00:29:02;5.05;;;2.08;;
34405;SDS011;20658;45.630;8.886;2024-03-02T00:31:38;4.10;;;2.13;;
34405;SDS011;20658;45.630;8.886;2024-03-02T00:34:13;3.55;;;1.92;;
34405;SDS011;20658;45.630;8.886;2024-03-02T00:36:47;3.30;;;1.80;;
34405;SDS011;20658;45.630;8.886;2024-03-02T00:39:22;3.58;;;1.80;;
34405;SDS011;20658;45.630;8.886;2024-03-02T00:41:56;5.03;;;1.92;;
34405;SDS011;20658;45.630;8.886;2024-03-02T00:44:25;4.13;;;1.65;;
34405;SDS011;20658;45.630;8.886;2024-03-02T00:47:03;4.05;;;1.70;;
34405;SDS011;20658;45.630;8.886;2024-03-02T00:49:37;4.55;;;1.77;;
34405;SDS011;20658;45.630;8.886;2024-03-02T00:52:05;4.50;;;1.92;;
34405;SDS011;20658;45.630;8.886;2024-03-02T00:54:35;4.00;;;2.10;;
34405;SDS011;20658;45.630;8.886;2024-03-02T00:57:09;2.60;;;1.60;;
34405;SDS011;20658;45.630;8.886;2024-03-02T00:59:43;2.25;;;1.38;;
34405;SDS011;20658;45.630;8.886;2024-03-02T01:02:14;6.97;;;1.80;;
34405;SDS011;20658;45.630;8.886;2024-03-02T01:04:47;3.60;;;1.40;;
34405;SDS011;20658;45.630;8.886;2024-03-02T01:07:21;5.72;;;1.98;;
34405;SDS011;20658;45.630;8.886;2024-03-02T01:09:49;4.97;;;2.00;;
34405;SDS011;20658;45.630;8.886;2024-03-02T01:12:23;9.70;;;3.85;;
34405;SDS011;20658;45.630;8.886;2024-03-02T01:14:56;4.30;;;2.20;;
34405;SDS011;20658;45.630;8.886;2024-03-02T01:17:26;3.65;;;1.98;;
34405;SDS011;20658;45.630;8.886;2024-03-02T01:19:55;8.07;;;1.88;;
34405;SDS011;20658;45.630;8.886;2024-03-02T01:22:28;5.80;;;2.25;;
34405;SDS011;20658;45.630;8.886;2024-03-02T01:25:02;4.10;;;1.50;;
34405;SDS011;20658;45.630;8.886;2024-03-02T01:27:36;4.30;;;1.30;;
34405;SDS011;20658;45.630;8.886;2024-03-02T01:30:10;2.70;;;0.95;;
34405;SDS011;20658;45.630;8.886;2024-03-02T01:32:45;2.97;;;1.80;;
34405;SDS011;20658;45.630;8.886;2024-03-02T01:35:19;5.10;;;1.65;;
34405;SDS011;20658;45.630;8.886;2024-03-02T01:37:52;6.68;;;3.40;;
34405;SDS011;20658;45.630;8.886;2024-03-02T01:40:26;13.88;;;5.45;;
34405;SDS011;20658;45.630;8.886;2024-03-02T01:42:59;9.15;;;4.30;;
34405;SDS011;20658;45.630;8.886;2024-03-02T01:45:33;10.23;;;3.90;;
34405;SDS011;20658;45.630;8.886;2024-03-02T01:48:10;8.43;;;2.45;;
34405;SDS011;20658;45.630;8.886;2024-03-02T01:50:38;3.70;;;1.88;;
34405;SDS011;20658;45.630;8.886;2024-03-02T01:53:12;8.55;;;4.60;;
34405;SDS011;20658;45.630;8.886;2024-03-02T01:55:45;3.75;;;2.08;;
34405;SDS011;20658;45.630;8.886;2024-03-02T01:58:19;2.67;;;1.58;;
34405;SDS011;20658;45.630;8.886;2024-03-02T02:00:52;3.88;;;1.63;;
34405;SDS011;20658;45.630;8.886;2024-03-02T02:03:27;7.22;;;1.67;;
34405;SDS011;20658;45.630;8.886;2024-03-02T02:05:56;3.15;;;1.65;;
34405;SDS011;20658;45.630;8.886;2024-03-02T02:08:29;1.88;;;1.30;;
34405;SDS011;20658;45.630;8.886;2024-03-02T02:11:03;2.92;;;1.45;;
34405;SDS011;20658;45.630;8.886;2024-03-02T02:13:37;2.42;;;1.30;;
34405;SDS011;20658;45.630;8.886;2024-03-02T02:16:10;2.83;;;1.23;;
34405;SDS011;20658;45.630;8.886;2024-03-02T02:18:45;1.50;;;1.00;;
34405;SDS011;20658;45.630;8.886;2024-03-02T02:21:14;5.30;;;2.15;;
34405;SDS011;20658;45.630;8.886;2024-03-02T02:23:49;4.38;;;1.98;;
34405;SDS011;20658;45.630;8.886;2024-03-02T02:26:23;3.35;;;1.75;;
34405;SDS011;20658;45.630;8.886;2024-03-02T02:28:56;3.05;;;1.40;;
34405;SDS011;20658;45.630;8.886;2024-03-02T02:31:36;5.45;;;1.70;;
34405;SDS011;20658;45.630;8.886;2024-03-02T02:34:10;3.65;;;1.20;;
34405;SDS011;20658;45.630;8.886;2024-03-02T02:36:43;3.22;;;1.55;;
34405;SDS011;20658;45.630;8.886;2024-03-02T02:39:20;2.80;;;1.27;;
34405;SDS011;20658;45.630;8.886;2024-03-02T02:41:54;2.92;;;0.95;;
34405;SDS011;20658;45.630;8.886;2024-03-02T02:44:28;2.08;;;1.40;;
34405;SDS011;20658;45.630;8.886;2024-03-02T02:46:56;4.07;;;1.45;;
34405;SDS011;20658;45.630;8.886;2024-03-02T02:52:22;1.67;;;0.80;;
34405;SDS011;20658;45.630;8.886;2024-03-02T02:54:57;2.33;;;0.95;;
34405;SDS011;20658;45.630;8.886;2024-03-02T02:57:30;7.30;;;1.83;;
34405;SDS011;20658;45.630;8.886;2024-03-02T03:00:07;3.30;;;0.90;;
34405;SDS011;20658;45.630;8.886;2024-03-02T03:02:46;4.60;;;1.40;;
34405;SDS011;20658;45.630;8.886;2024-03-02T03:05:21;2.38;;;1.17;;
34405;SDS011;20658;45.630;8.886;2024-03-02T03:07:54;2.00;;;0.90;;
34405;SDS011;20658;45.630;8.886;2024-03-02T03:10:29;2.33;;;0.80;;
34405;SDS011;20658;45.630;8.886;2024-03-02T03:13:04;1.27;;;0.80;;
34405;SDS011;20658;45.630;8.886;2024-03-02T03:15:39;4.03;;;0.80;;
34405;SDS011;20658;45.630;8.886;2024-03-02T03:18:08;3.42;;;0.90;;
34405;SDS011;20658;45.630;8.886;2024-03-02T03:20:42;1.77;;;0.85;;
34405;SDS011;20658;45.630;8.886;2024-03-02T03:23:15;2.72;;;1.25;;
34405;SDS011;20658;45.630;8.886;2024-03-02T03:25:50;3.65;;;1.10;;
34405;SDS011;20658;45.630;8.886;2024-03-02T03:28:19;4.53;;;1.25;;
34405;SDS011;20658;45.630;8.886;2024-03-02T03:30:52;2.17;;;1.25;;
34405;SDS011;20658;45.630;8.886;2024-03-02T03:33:26;4.22;;;1.10;;
34405;SDS011;20658;45.630;8.886;2024-03-02T03:35:59;2.65;;;1.27;;
34405;SDS011;20658;45.630;8.886;2024-03-02T03:38:29;1.35;;;0.70;;
34405;SDS011;20658;45.630;8.886;2024-03-02T03:41:04;3.30;;;0.80;;
34405;SDS011;20658;45.630;8.886;2024-03-02T03:43:33;2.40;;;0.85;;
34405;SDS011;20658;45.630;8.886;2024-03-02T03:46:06;2.20;;;1.13;;
34405;SDS011;20658;45.630;8.886;2024-03-02T03:48:40;10.43;;;1.10;;
34405;SDS011;20658;45.630;8.886;2024-03-02T03:51:08;2.63;;;1.00;;
34405;SDS011;20658;45.630;8.886;2024-03-02T03:53:42;2.83;;;1.20;;
34405;SDS011;20658;45.630;8.886;2024-03-02T03:56:17;2.72;;;0.98;;
34405;SDS011;20658;45.630;8.886;2024-03-02T03:58:46;4.13;;;0.68;;
34405;SDS011;20658;45.630;8.886;2024-03-02T04:01:19;2.67;;;0.60;;
34405;SDS011;20658;45.630;8.886;2024-03-02T04:03:53;0.50;;;0.40;;
34405;SDS011;20658;45.630;8.886;2024-03-02T04:06:22;1.48;;;0.70;;
34405;SDS011;20658;45.630;8.886;2024-03-02T04:08:55;2.38;;;0.75;;
34405;SDS011;20658;45.630;8.886;2024-03-02T04:11:31;3.13;;;0.93;;
34405;SDS011;20658;45.630;8.886;2024-03-02T04:14:04;1.95;;;0.90;;
34405;SDS011;20658;45.630;8.886;2024-03-02T04:16:38;4.50;;;1.67;;
34405;SDS011;20658;45.630;8.886;2024-03-02T04:19:06;2.58;;;1.00;;
34405;SDS011;20658;45.630;8.886;2024-03-02T04:21:40;4.50;;;1.00;;
34405;SDS011;20658;45.630;8.886;2024-03-02T04:24:13;3.95;;;0.80;;
34405;SDS011;20658;45.630;8.886;2024-03-02T04:26:51;4.18;;;0.80;;
34405;SDS011;20658;45.630;8.886;2024-03-02T04:29:24;0.88;;;0.52;;
34405;SDS011;20658;45.630;8.886;2024-03-02T04:31:58;1.80;;;0.85;;
34405;SDS011;20658;45.630;8.886;2024-03-02T04:34:31;3.70;;;0.68;;
34405;SDS011;20658;45.630;8.886;2024-03-02T04:37:05;2.00;;;0.80;;
34405;SDS011;20658;45.630;8.886;2024-03-02T04:39:38;3.83;;;1.10;;
34405;SDS011;20658;45.630;8.886;2024-03-02T04:42:08;5.15;;;0.80;;
34405;SDS011;20658;45.630;8.886;2024-03-02T04:44:37;2.63;;;0.80;;
34405;SDS011;20658;45.630;8.886;2024-03-02T04:47:06;2.05;;;0.90;;
34405;SDS011;20658;45.630;8.886;2024-03-02T04:49:39;4.18;;;0.93;;
34405;SDS011;20658;45.630;8.886;2024-03-02T04:52:13;4.45;;;1.58;;
34405;SDS011;20658;45.630;8.886;2024-03-02T04:54:41;2.15;;;1.45;;
34405;SDS011;20658;45.630;8.886;2024-03-02T04:57:30;3.28;;;1.40;;
34405;SDS011;20658;45.630;8.886;2024-03-02T05:00:04;2.95;;;1.40;;
34405;SDS011;20658;45.630;8.886;2024-03-02T05:02:40;4.80;;;0.63;;
34405;SDS011;20658;45.630;8.886;2024-03-02T05:05:08;2.53;;;1.15;;
34405;SDS011;20658;45.630;8.886;2024-03-02T05:07:37;5.05;;;1.67;;
34405;SDS011;20658;45.630;8.886;2024-03-02T05:10:10;3.75;;;1.33;;
34405;SDS011;20658;45.630;8.886;2024-03-02T05:12:45;4.03;;;1.80;;
34405;SDS011;20658;45.630;8.886;2024-03-02T05:15:31;3.80;;;1.58;;
34405;SDS011;20658;45.630;8.886;2024-03-02T05:18:04;5.20;;;1.92;;
34405;SDS011;20658;45.630;8.886;2024-03-02T05:20:38;2.53;;;1.67;;
34405;SDS011;20658;45.630;8.886;2024-03-02T05:23:11;2.92;;;1.50;;
34405;SDS011;20658;45.630;8.886;2024-03-02T05:25:45;2.50;;;1.30;;
34405;SDS011;20658;45.630;8.886;2024-03-02T05:28:20;4.15;;;1.85;;
34405;SDS011;20658;45.630;8.886;2024-03-02T05:30:53;6.38;;;2.75;;
34405;SDS011;20658;45.630;8.886;2024-03-02T05:33:27;3.92;;;1.80;;
34405;SDS011;20658;45.630;8.886;2024-03-02T05:36:02;5.93;;;1.80;;
34405;SDS011;20658;45.630;8.886;2024-03-02T05:38:37;5.28;;;2.25;;
34405;SDS011;20658;45.630;8.886;2024-03-02T05:41:10;4.95;;;2.13;;
34405;SDS011;20658;45.630;8.886;2024-03-02T05:43:45;6.18;;;2.88;;
34405;SDS011;20658;45.630;8.886;2024-03-02T05:46:19;10.90;;;3.60;;
34405;SDS011;20658;45.630;8.886;2024-03-02T05:48:53;3.97;;;2.22;;
34405;SDS011;20658;45.630;8.886;2024-03-02T05:51:21;6.55;;;2.30;;
34405;SDS011;20658;45.630;8.886;2024-03-02T05:53:55;4.25;;;2.58;;
34405;SDS011;20658;45.630;8.886;2024-03-02T05:56:28;6.40;;;2.90;;
34405;SDS011;20658;45.630;8.886;2024-03-02T05:59:03;8.70;;;3.38;;
34405;SDS011;20658;45.630;8.886;2024-03-02T06:01:44;6.95;;;3.70;;
34405;SDS011;20658;45.630;8.886;2024-03-02T06:04:14;5.38;;;2.95;;
34405;SDS011;20658;45.630;8.886;2024-03-02T06:06:43;10.18;;;4.00;;
34405;SDS011;20658;45.630;8.886;2024-03-02T06:09:17;10.75;;;4.55;;
34405;SDS011;20658;45.630;8.886;2024-03-02T06:11:51;8.07;;;3.45;;
34405;SDS011;20658;45.630;8.886;2024-03-02T06:14:26;9.82;;;3.92;;
34405;SDS011;20658;45.630;8.886;2024-03-02T06:16:54;6.65;;;3.90;;
34405;SDS011;20658;45.630;8.886;2024-03-02T06:19:28;11.65;;;4.07;;
34405;SDS011;20658;45.630;8.886;2024-03-02T06:22:02;8.90;;;3.60;;
34405;SDS011;20658;45.630;8.886;2024-03-02T06:24:32;6.50;;;3.00;;
34405;SDS011;20658;45.630;8.886;2024-03-02T06:27:05;11.25;;;4.35;;
34405;SDS011;20658;45.630;8.886;2024-03-02T06:29:40;10.40;;;4.35;;
34405;SDS011;20658;45.630;8.886;2024-03-02T06:32:13;10.13;;;4.85;;
34405;SDS011;20658;45.630;8.886;2024-03-02T06:34:47;7.75;;;4.18;;
34405;SDS011;20658;45.630;8.886;2024-03-02T06:37:15;7.32;;;4.25;;
34405;SDS011;20658;45.630;8.886;2024-03-02T06:39:49;14.57;;;5.55;;
34405;SDS011;20658;45.630;8.886;2024-03-02T06:42:22;10.02;;;4.72;;
34405;SDS011;20658;45.630;8.886;2024-03-02T06:44:52;11.45;;;5.43;;
34405;SDS011;20658;45.630;8.886;2024-03-02T06:47:27;10.20;;;5.57;;
34405;SDS011;20658;45.630;8.886;2024-03-02T06:50:00;10.45;;;5.53;;
34405;SDS011;20658;45.630;8.886;2024-03-02T06:52:34;13.52;;;6.47;;
34405;SDS011;20658;45.630;8.886;2024-03-02T06:55:08;18.25;;;8.43;;
34405;SDS011;20658;45.630;8.886;2024-03-02T06:57:41;17.17;;;7.72;;
34405;SDS011;20658;45.630;8.886;2024-03-02T07:00:12;20.92;;;11.35;;
34405;SDS011;20658;45.630;8.886;2024-03-02T07:02:47;26.02;;;10.80;;
34405;SDS011;20658;45.630;8.886;2024-03-02T07:05:16;22.67;;;10.85;;
34405;SDS011;20658;45.630;8.886;2024-03-02T07:07:49;27.95;;;10.73;;
34405;SDS011;20658;45.630;8.886;2024-03-02T07:10:23;20.65;;;11.85;;
34405;SDS011;20658;45.630;8.886;2024-03-02T07:12:51;23.45;;;11.60;;
34405;SDS011;20658;45.630;8.886;2024-03-02T07:15:21;20.10;;;10.55;;
34405;SDS011;20658;45.630;8.886;2024-03-02T07:18:09;22.25;;;11.65;;
34405;SDS011;20658;45.630;8.886;2024-03-02T07:20:38;22.98;;;11.05;;
34405;SDS011;20658;45.630;8.886;2024-03-02T07:23:06;20.60;;;11.27;;
34405;SDS011;20658;45.630;8.886;2024-03-02T07:25:35;19.48;;;11.52;;
34405;SDS011;20658;45.630;8.886;2024-03-02T07:28:09;24.25;;;11.70;;
34405;SDS011;20658;45.630;8.886;2024-03-02T07:30:44;20.92;;;11.40;;
34405;SDS011;20658;45.630;8.886;2024-03-02T07:33:12;25.92;;;12.90;;
34405;SDS011;20658;45.630;8.886;2024-03-02T07:35:43;20.55;;;12.82;;
34405;SDS011;20658;45.630;8.886;2024-03-02T07:38:16;27.30;;;14.00;;
34405;SDS011;20658;45.630;8.886;2024-03-02T07:40:45;25.38;;;13.32;;
34405;SDS011;20658;45.630;8.886;2024-03-02T07:43:17;30.27;;;15.00;;
34405;SDS011;20658;45.630;8.886;2024-03-02T07:45:48;28.13;;;15.65;;
34405;SDS011;20658;45.630;8.886;2024-03-02T07:48:16;30.85;;;18.77;;
34405;SDS011;20658;45.630;8.886;2024-03-02T07:50:45;32.65;;;18.15;;
34405;SDS011;20658;45.630;8.886;2024-03-02T07:53:13;26.00;;;17.45;;
34405;SDS011;20658;45.630;8.886;2024-03-02T07:55:42;28.25;;;19.27;;
34405;SDS011;20658;45.630;8.886;2024-03-02T07:58:11;30.42;;;19.73;;
34405;SDS011;20658;45.630;8.886;2024-03-02T08:00:40;30.73;;;21.23;;
34405;SDS011;20658;45.630;8.886;2024-03-02T08:03:10;31.92;;;20.10;;
34405;SDS011;20658;45.630;8.886;2024-03-02T08:05:39;29.55;;;19.65;;
34405;SDS011;20658;45.630;8.886;2024-03-02T08:08:08;32.22;;;19.00;;
34405;SDS011;20658;45.630;8.886;2024-03-02T08:10:38;27.52;;;19.70;;
34405;SDS011;20658;45.630;8.886;2024-03-02T08:13:06;33.28;;;19.92;;
34405;SDS011;20658;45.630;8.886;2024-03-02T08:15:35;30.08;;;19.67;;
34405;SDS011;20658;45.630;8.886;2024-03-02T08:18:04;29.10;;;19.63;;
34405;SDS011;20658;45.630;8.886;2024-03-02T08:20:34;33.90;;;21.55;;
34405;SDS011;20658;45.630;8.886;2024-03-02T08:23:03;28.50;;;20.05;;
34405;SDS011;20658;45.630;8.886;2024-03-02T08:25:32;29.98;;;19.75;;
34405;SDS011;20658;45.630;8.886;2024-03-02T08:28:06;30.10;;;17.23;;
34405;SDS011;20658;45.630;8.886;2024-03-02T08:30:35;27.73;;;17.55;;
34405;SDS011;20658;45.630;8.886;2024-03-02T08:33:04;30.38;;;19.20;;
34405;SDS011;20658;45.630;8.886;2024-03-02T08:35:34;32.50;;;18.95;;
34405;SDS011;20658;45.630;8.886;2024-03-02T08:38:03;29.15;;;17.38;;
34405;SDS011;20658;45.630;8.886;2024-03-02T08:40:37;28.45;;;16.98;;
34405;SDS011;20658;45.630;8.886;2024-03-02T08:43:06;32.63;;;18.38;;
34405;SDS011;20658;45.630;8.886;2024-03-02T08:45:34;25.48;;;16.33;;
34405;SDS011;20658;45.630;8.886;2024-03-02T08:48:04;23.05;;;15.48;;
34405;SDS011;20658;45.630;8.886;2024-03-02T08:50:41;23.25;;;14.88;;
34405;SDS011;20658;45.630;8.886;2024-03-02T08:53:09;26.27;;;15.30;;
34405;SDS011;20658;45.630;8.886;2024-03-02T08:55:38;25.40;;;13.43;;
34405;SDS011;20658;45.630;8.886;2024-03-02T08:58:12;21.55;;;12.73;;
34405;SDS011;20658;45.630;8.886;2024-03-02T09:00:45;26.90;;;13.90;;
34405;SDS011;20658;45.630;8.886;2024-03-02T09:03:15;25.90;;;12.48;;
34405;SDS011;20658;45.630;8.886;2024-03-02T09:05:45;21.88;;;12.25;;
34405;SDS011;20658;45.630;8.886;2024-03-02T09:08:14;24.48;;;11.13;;
34405;SDS011;20658;45.630;8.886;2024-03-02T09:10:47;21.13;;;10.73;;
34405;SDS011;20658;45.630;8.886;2024-03-02T09:13:16;22.20;;;9.95;;
34405;SDS011;20658;45.630;8.886;2024-03-02T09:15:49;21.90;;;10.45;;
34405;SDS011;20658;45.630;8.886;2024-03-02T09:18:18;18.90;;;9.88;;
34405;SDS011;20658;45.630;8.886;2024-03-02T09:20:48;16.88;;;8.13;;
34405;SDS011;20658;45.630;8.886;2024-03-02T09:23:21;17.38;;;8.60;;
34405;SDS011;20658;45.630;8.886;2024-03-02T09:25:55;16.92;;;8.00;;
34405;SDS011;20658;45.630;8.886;2024-03-02T09:28:24;16.40;;;7.65;;
34405;SDS011;20658;45.630;8.886;2024-03-02T09:30:52;17.77;;;7.65;;
34405;SDS011;20658;45.630;8.886;2024-03-02T09:33:26;17.23;;;6.90;;
34405;SDS011;20658;45.630;8.886;2024-03-02T09:35:56;14.63;;;7.10;;
34405;SDS011;20658;45.630;8.886;2024-03-02T09:38:30;14.15;;;6.43;;
34405;SDS011;20658;45.630;8.886;2024-03-02T09:41:00;15.05;;;5.78;;
34405;SDS011;20658;45.630;8.886;2024-03-02T09:43:29;13.00;;;6.18;;
34405;SDS011;20658;45.630;8.886;2024-03-02T09:46:03;14.57;;;6.90;;
34405;SDS011;20658;45.630;8.886;2024-03-02T09:48:32;10.85;;;6.45;;
34405;SDS011;20658;45.630;8.886;2024-03-02T09:51:03;13.98;;;6.07;;
34405;SDS011;20658;45.630;8.886;2024-03-02T09:53:37;18.83;;;6.85;;
34405;SDS011;20658;45.630;8.886;2024-03-02T09:56:12;15.45;;;7.35;;
34405;SDS011;20658;45.630;8.886;2024-03-02T09:58:42;17.98;;;6.70;;
34405;SDS011;20658;45.630;8.886;2024-03-02T10:01:11;13.68;;;6.57;;
34405;SDS011;20658;45.630;8.886;2024-03-02T10:03:45;18.95;;;8.10;;
34405;SDS011;20658;45.630;8.886;2024-03-02T10:06:23;24.40;;;10.23;;
34405;SDS011;20658;45.630;8.886;2024-03-02T10:08:53;26.73;;;14.25;;
34405;SDS011;20658;45.630;8.886;2024-03-02T10:11:28;20.38;;;9.38;;
34405;SDS011;20658;45.630;8.886;2024-03-02T10:14:04;15.60;;;6.97;;
34405;SDS011;20658;45.630;8.886;2024-03-02T10:16:41;19.05;;;8.73;;
34405;SDS011;20658;45.630;8.886;2024-03-02T10:19:18;19.83;;;8.73;;
34405;SDS011;20658;45.630;8.886;2024-03-02T10:21:52;18.35;;;6.68;;
34405;SDS011;20658;45.630;8.886;2024-03-02T10:24:22;20.35;;;8.43;;
34405;SDS011;20658;45.630;8.886;2024-03-02T10:27:01;19.75;;;7.90;;
34405;SDS011;20658;45.630;8.886;2024-03-02T10:29:36;15.90;;;7.35;;
34405;SDS011;20658;45.630;8.886;2024-03-02T10:32:12;17.38;;;7.45;;
34405;SDS011;20658;45.630;8.886;2024-03-02T10:34:46;15.60;;;8.20;;
34405;SDS011;20658;45.630;8.886;2024-03-02T10:37:21;14.93;;;7.00;;
34405;SDS011;20658;45.630;8.886;2024-03-02T10:39:55;14.18;;;7.07;;
34405;SDS011;20658;45.630;8.886;2024-03-02T10:42:28;19.67;;;10.55;;
34405;SDS011;20658;45.630;8.886;2024-03-02T10:45:02;22.02;;;10.70;;
34405;SDS011;20658;45.630;8.886;2024-03-02T10:47:32;20.83;;;10.93;;
34405;SDS011;20658;45.630;8.886;2024-03-02T10:50:04;16.88;;;7.95;;
34405;SDS011;20658;45.630;8.886;2024-03-02T10:52:42;17.38;;;8.73;;
34405;SDS011;20658;45.630;8.886;2024-03-02T10:55:15;17.15;;;9.32;;
34405;SDS011;20658;45.630;8.886;2024-03-02T10:57:50;13.20;;;8.07;;
34405;SDS011;20658;45.630;8.886;2024-03-02T11:00:23;19.15;;;8.43;;
34405;SDS011;20658;45.630;8.886;2024-03-02T11:03:04;16.27;;;8.93;;
34405;SDS011;20658;45.630;8.886;2024-03-02T11:05:40;15.27;;;7.15;;
34405;SDS011;20658;45.630;8.886;2024-03-02T11:08:13;15.75;;;7.93;;
34405;SDS011;20658;45.630;8.886;2024-03-02T11:10:48;14.32;;;7.50;;
34405;SDS011;20658;45.630;8.886;2024-03-02T11:13:24;15.95;;;6.68;;
34405;SDS011;20658;45.630;8.886;2024-03-02T11:16:06;10.73;;;6.88;;
34405;SDS011;20658;45.630;8.886;2024-03-02T11:18:46;14.38;;;6.40;;
34405;SDS011;20658;45.630;8.886;2024-03-02T11:21:16;11.45;;;6.53;;
34405;SDS011;20658;45.630;8.886;2024-03-02T11:23:52;13.60;;;7.75;;
34405;SDS011;20658;45.630;8.886;2024-03-02T11:26:26;13.02;;;8.05;;
34405;SDS011;20658;45.630;8.886;2024-03-02T11:29:00;14.05;;;7.47;;
34405;SDS011;20658;45.630;8.886;2024-03-02T11:34:32;14.80;;;9.45;;
34405;SDS011;20658;45.630;8.886;2024-03-02T11:37:08;15.27;;;9.98;;
34405;SDS011;20658;45.630;8.886;2024-03-02T11:39:43;13.38;;;9.07;;
34405;SDS011;20658;45.630;8.886;2024-03-02T11:42:13;15.27;;;9.38;;
34405;SDS011;20658;45.630;8.886;2024-03-02T11:44:48;16.45;;;10.02;;
34405;SDS011;20658;45.630;8.886;2024-03-02T11:47:22;14.05;;;9.10;;
34405;SDS011;20658;45.630;8.886;2024-03-02T11:49:50;12.30;;;8.23;;
34405;SDS011;20658;45.630;8.886;2024-03-02T11:52:19;17.10;;;10.38;;
34405;SDS011;20658;45.630;8.886;2024-03-02T11:54:54;14.63;;;9.80;;
34405;SDS011;20658;45.630;8.886;2024-03-02T11:57:24;13.52;;;9.38;;
34405;SDS011;20658;45.630;8.886;2024-03-02T11:59:58;17.42;;;9.95;;
34405;SDS011;20658;45.630;8.886;2024-03-02T12:02:34;15.32;;;10.27;;
34405;SDS011;20658;45.630;8.886;2024-03-02T12:05:08;15.32;;;9.60;;
34405;SDS011;20658;45.630;8.886;2024-03-02T12:07:38;12.60;;;9.13;;
34405;SDS011;20658;45.630;8.886;2024-03-02T12:10:08;15.65;;;9.30;;
34405;SDS011;20658;45.630;8.886;2024-03-02T12:12:37;14.20;;;8.57;;
34405;SDS011;20658;45.630;8.886;2024-03-02T12:15:10;16.70;;;9.98;;
34405;SDS011;20658;45.630;8.886;2024-03-02T12:17:39;16.30;;;9.88;;
34405;SDS011;20658;45.630;8.886;2024-03-02T12:20:08;16.80;;;10.55;;
34405;SDS011;20658;45.630;8.886;2024-03-02T12:22:45;19.65;;;11.10;;
34405;SDS011;20658;45.630;8.886;2024-03-02T12:25:15;17.27;;;10.38;;
34405;SDS011;20658;45.630;8.886;2024-03-02T12:27:44;24.27;;;12.23;;
34405;SDS011;20658;45.630;8.886;2024-03-02T12:30:19;21.17;;;12.27;;
34405;SDS011;20658;45.630;8.886;2024-03-02T12:32:53;20.55;;;12.90;;
34405;SDS011;20658;45.630;8.886;2024-03-02T12:35:23;22.33;;;13.23;;
34405;SDS011;20658;45.630;8.886;2024-03-02T12:37:53;24.20;;;12.57;;
34405;SDS011;20658;45.630;8.886;2024-03-02T12:40:24;20.35;;;12.77;;
34405;SDS011;20658;45.630;8.886;2024-03-02T12:42:58;21.40;;;13.18;;
34405;SDS011;20658;45.630;8.886;2024-03-02T12:45:27;26.42;;;13.40;;
34405;SDS011;20658;45.630;8.886;2024-03-02T12:47:56;21.95;;;12.43;;
34405;SDS011;20658;45.630;8.886;2024-03-02T12:50:33;22.85;;;13.57;;
34405;SDS011;20658;45.630;8.886;2024-03-02T12:53:01;21.00;;;13.82;;
34405;SDS011;20658;45.630;8.886;2024-03-02T12:55:37;21.77;;;13.68;;
34405;SDS011;20658;45.630;8.886;2024-03-02T12:58:16;20.92;;;13.85;;
34405;SDS011;20658;45.630;8.886;2024-03-02T13:00:55;19.52;;;11.32;;
34405;SDS011;20658;45.630;8.886;2024-03-02T13:03:35;18.70;;;10.93;;
34405;SDS011;20658;45.630;8.886;2024-03-02T13:06:05;17.65;;;10.88;;
34405;SDS011;20658;45.630;8.886;2024-03-02T13:08:58;15.95;;;9.88;;
34405;SDS011;20658;45.630;8.886;2024-03-02T13:11:34;13.98;;;8.77;;
34405;SDS011;20658;45.630;8.886;2024-03-02T13:14:10;13.75;;;8.80;;
34405;SDS011;20658;45.630;8.886;2024-03-02T13:16:44;16.50;;;9.35;;
34405;SDS011;20658;45.630;8.886;2024-03-02T13:19:13;14.20;;;9.25;;
34405;SDS011;20658;45.630;8.886;2024-03-02T13:21:42;14.85;;;8.48;;
34405;SDS011;20658;45.630;8.886;2024-03-02T13:24:15;13.77;;;8.48;;
34405;SDS011;20658;45.630;8.886;2024-03-02T13:26:45;17.70;;;10.23;;
34405;SDS011;20658;45.630;8.886;2024-03-02T13:29:14;15.73;;;9.30;;
34405;SDS011;20658;45.630;8.886;2024-03-02T13:31:42;16.50;;;9.15;;
34405;SDS011;20658;45.630;8.886;2024-03-02T13:34:16;18.90;;;9.35;;
34405;SDS011;20658;45.630;8.886;2024-03-02T13:36:44;15.23;;;9.23;;
34405;SDS011;20658;45.630;8.886;2024-03-02T13:39:13;18.42;;;10.20;;
34405;SDS011;20658;45.630;8.886;2024-03-02T13:41:42;16.90;;;10.60;;
34405;SDS011;20658;45.630;8.886;2024-03-02T13:44:24;16.33;;;9.00;;
34405;SDS011;20658;45.630;8.886;2024-03-02T13:46:58;19.42;;;9.93;;
34405;SDS011;20658;45.630;8.886;2024-03-02T13:49:28;16.13;;;10.10;;
34405;SDS011;20658;45.630;8.886;2024-03-02T13:52:05;15.35;;;9.45;;
34405;SDS011;20658;45.630;8.886;2024-03-02T13:54:39;15.63;;;9.57;;
34405;SDS011;20658;45.630;8.886;2024-03-02T13:57:09;21.55;;;11.10;;
34405;SDS011;20658;45.630;8.886;2024-03-02T13:59:40;19.13;;;12.07;;
34405;SDS011;20658;45.630;8.886;2024-03-02T14:02:09;20.00;;;12.57;;
34405;SDS011;20658;45.630;8.886;2024-03-02T14:04:44;20.33;;;12.40;;
34405;SDS011;20658;45.630;8.886;2024-03-02T14:07:18;19.02;;;13.05;;
34405;SDS011;20658;45.630;8.886;2024-03-02T14:09:46;20.70;;;13.30;;
34405;SDS011;20658;45.630;8.886;2024-03-02T14:12:20;20.27;;;13.10;;
34405;SDS011;20658;45.630;8.886;2024-03-02T14:14:56;18.13;;;12.60;;
34405;SDS011;20658;45.630;8.886;2024-03-02T14:17:30;19.55;;;12.88;;
34405;SDS011;20658;45.630;8.886;2024-03-02T14:19:59;21.30;;;12.75;;
34405;SDS011;20658;45.630;8.886;2024-03-02T14:25:00;19.25;;;12.93;;
34405;SDS011;20658;45.630;8.886;2024-03-02T14:27:29;20.77;;;13.52;;
34405;SDS011;20658;45.630;8.886;2024-03-02T14:29:59;20.15;;;13.68;;
34405;SDS011;20658;45.630;8.886;2024-03-02T14:32:33;22.05;;;14.52;;
34405;SDS011;20658;45.630;8.886;2024-03-02T14:35:01;20.42;;;12.75;;
34405;SDS011;20658;45.630;8.886;2024-03-02T14:37:35;21.45;;;14.40;;
34405;SDS011;20658;45.630;8.886;2024-03-02T14:40:09;19.63;;;13.45;;
34405;SDS011;20658;45.630;8.886;2024-03-02T14:42:44;21.00;;;13.45;;
34405;SDS011;20658;45.630;8.886;2024-03-02T14:45:20;20.50;;;13.70;;
34405;SDS011;20658;45.630;8.886;2024-03-02T14:47:55;20.88;;;14.02;;
34405;SDS011;20658;45.630;8.886;2024-03-02T14:50:26;23.77;;;15.15;;
34405;SDS011;20658;45.630;8.886;2024-03-02T14:52:59;21.50;;;15.52;;
34405;SDS011;20658;45.630;8.886;2024-03-02T14:55:33;20.90;;;14.77;;
34405;SDS011;20658;45.630;8.886;2024-03-02T14:58:08;22.27;;;14.02;;
34405;SDS011;20658;45.630;8.886;2024-03-02T15:00:42;19.52;;;12.75;;
34405;SDS011;20658;45.630;8.886;2024-03-02T15:03:16;19.63;;;13.55;;
34405;SDS011;20658;45.630;8.886;2024-03-02T15:05:50;20.27;;;13.73;;
34405;SDS011;20658;45.630;8.886;2024-03-02T15:08:25;22.13;;;13.80;;
34405;SDS011;20658;45.630;8.886;2024-03-02T15:10:58;19.13;;;12.77;;
34405;SDS011;20658;45.630;8.886;2024-03-02T15:13:32;20.17;;;13.88;;
34405;SDS011;20658;45.630;8.886;2024-03-02T15:16:07;22.95;;;12.93;;